Time;durP1;ratioP1;P1;durP2;ratioP2;P2;SDS_P1;SDS_P2;PMS_P1;PMS_P2;Temp;Humidity;BMP_temperature;BMP_pressure;BME280_temperature;BME280_humidity;BME280_pressure;Samples;Min_cycle;Max_cycle;Signal;HPM_P1;HPM_P2
2023/03/27 00:02:17;;;;;;;2.40;1.70;;;9.40;99.90;;;;;;5027503;28;20434;-65
2023/03/27 00:04:43;;;;;;;1.90;1.60;;;9.40;99.90;;;;;;5024230;28;20473;-65
2023/03/27 00:07:09;;;;;;;2.30;1.70;;;9.40;99.90;;;;;;5023208;28;20457;-65
2023/03/27 00:09:36;;;;;;;2.60;1.70;;;9.40;99.90;;;;;;5026555;28;20868;-65
2023/03/27 00:12:02;;;;;;;3.03;1.80;;;9.30;99.90;;;;;;5025637;28;20266;-64
2023/03/27 00:14:27;;;;;;;2.23;2.00;;;9.40;99.90;;;;;;5022227;28;20436;-65
2023/03/27 00:16:53;;;;;;;2.43;2.00;;;9.40;99.90;;;;;;5025671;28;20481;-65
2023/03/27 00:19:18;;;;;;;2.63;2.00;;;9.40;99.90;;;;;;5023566;28;20200;-65
2023/03/27 00:21:44;;;;;;;2.23;1.70;;;9.40;99.90;;;;;;5026467;28;20184;-65
2023/03/27 00:24:10;;;;;;;3.10;1.87;;;9.50;99.90;;;;;;5026768;28;22674;-65
2023/03/27 00:26:39;;;;;;;2.57;1.87;;;9.50;99.90;;;;;;5029754;28;20204;-65
2023/03/27 00:29:05;;;;;;;2.30;1.87;;;9.60;99.90;;;;;;5024126;28;20529;-65
2023/03/27 00:31:31;;;;;;;2.73;1.87;;;9.50;99.90;;;;;;5030738;28;20756;-66
2023/03/27 00:33:56;;;;;;;2.87;2.40;;;9.60;99.90;;;;;;5025348;28;20496;-65
2023/03/27 00:36:22;;;;;;;8.30;2.00;;;9.60;99.90;;;;;;5027401;28;20464;-65
2023/03/27 00:38:51;;;;;;;3.27;2.13;;;9.60;99.90;;;;;;5032295;28;20188;-65
2023/03/27 00:41:18;;;;;;;2.30;1.90;;;9.60;99.90;;;;;;5024365;28;20204;-65
2023/03/27 00:43:44;;;;;;;3.27;2.23;;;9.60;99.90;;;;;;5034143;28;20517;-65
2023/03/27 00:46:30;;;;;;;7.60;2.10;;;9.70;99.90;;;;;;5023971;28;20638;-65
2023/03/27 00:48:59;;;;;;;2.63;1.80;;;9.70;99.90;;;;;;5027016;28;20481;-65
2023/03/27 00:51:25;;;;;;;3.50;2.00;;;9.80;99.90;;;;;;5029727;28;21014;-65
2023/03/27 00:53:53;;;;;;;2.60;2.23;;;9.80;99.90;;;;;;5030042;28;20443;-66
2023/03/27 00:56:18;;;;;;;5.20;3.20;;;9.90;99.90;;;;;;5029860;28;20860;-66
2023/03/27 00:58:59;;;;;;;8.00;3.50;;;9.80;99.90;;;;;;5024857;28;20427;-66
2023/03/27 01:01:27;;;;;;;8.70;4.00;;;9.80;99.90;;;;;;5023564;28;20685;-66
2023/03/27 01:03:53;;;;;;;7.10;4.10;;;9.70;99.90;;;;;;5030860;28;20450;-64
2023/03/27 01:06:20;;;;;;;5.17;3.60;;;9.60;99.90;;;;;;5029895;28;20465;-64
2023/03/27 01:08:47;;;;;;;5.27;4.30;;;9.60;99.90;;;;;;5035658;28;20444;-64
2023/03/27 01:11:38;;;;;;;6.30;4.50;;;9.70;99.90;;;;;;5025109;28;20477;-64
2023/03/27 01:14:15;;;;;;;9.50;4.87;;;9.60;99.90;;;;;;5028938;28;20504;-64
2023/03/27 01:16:51;;;;;;;7.77;5.00;;;9.50;99.90;;;;;;5027060;28;20466;-65
2023/03/27 01:19:55;;;;;;;6.23;4.67;;;9.50;99.90;;;;;;5025240;28;20811;-63
2023/03/27 01:22:58;;;;;;;5.67;4.60;;;9.50;99.90;;;;;;5026445;28;20430;-64
2023/03/27 01:25:38;;;;;;;6.37;4.87;;;9.50;99.90;;;;;;5026862;28;20448;-64
2023/03/27 01:28:37;;;;;;;5.90;4.97;;;9.50;99.90;;;;;;5025545;28;20457;-64
2023/03/27 01:31:08;;;;;;;7.70;3.90;;;9.40;99.90;;;;;;5022877;28;20520;-64
2023/03/27 01:34:02;;;;;;;7.97;3.80;;;9.40;99.90;;;;;;5029611;28;20435;-65
2023/03/27 01:36:51;;;;;;;6.60;3.30;;;9.30;99.90;;;;;;5030443;28;20452;-65
2023/03/27 01:39:29;;;;;;;7.23;4.20;;;9.30;99.90;;;;;;5027558;28;20472;-64
2023/03/27 01:42:10;;;;;;;10.83;3.37;;;9.20;99.90;;;;;;5030049;28;20434;-65
2023/03/27 01:44:56;;;;;;;9.50;4.13;;;9.10;99.90;;;;;;5011784;28;20454;-64
2023/03/27 01:47:35;;;;;;;9.77;3.80;;;9.20;99.90;;;;;;5024073;28;20455;-64
2023/03/27 01:50:23;;;;;;;12.30;4.13;;;9.10;99.90;;;;;;5029347;28;20577;-64
2023/03/27 01:53:14;;;;;;;10.73;3.73;;;9.00;99.90;;;;;;5027058;28;20434;-64
2023/03/27 01:55:46;;;;;;;10.17;4.13;;;9.00;99.90;;;;;;5027531;28;20443;-64
2023/03/27 01:58:27;;;;;;;10.10;3.80;;;8.90;99.90;;;;;;5025886;28;20525;-65
2023/03/27 02:00:55;;;;;;;8.80;3.97;;;8.90;99.90;;;;;;5026203;28;20438;-65
2023/03/27 02:03:25;;;;;;;12.40;3.97;;;8.90;99.90;;;;;;5026764;28;20434;-65
2023/03/27 02:06:07;;;;;;;6.10;3.60;;;8.90;99.90;;;;;;5027578;28;20438;-65
2023/03/27 02:08:56;;;;;;;11.20;4.53;;;8.90;99.90;;;;;;5029219;28;20445;-65
2023/03/27 02:11:25;;;;;;;7.63;3.20;;;8.90;99.90;;;;;;5025958;28;20471;-65
2023/03/27 02:13:54;;;;;;;13.13;4.60;;;8.90;99.90;;;;;;5025846;28;20478;-65
2023/03/27 02:16:27;;;;;;;7.43;3.70;;;8.80;99.90;;;;;;5026678;28;20478;-65
2023/03/27 02:19:19;;;;;;;8.03;3.27;;;8.80;99.90;;;;;;5026585;28;20458;-64
2023/03/27 02:21:46;;;;;;;9.10;4.77;;;8.90;99.90;;;;;;5026810;28;20450;-64
2023/03/27 02:24:14;;;;;;;10.20;3.20;;;8.80;99.90;;;;;;5025416;28;20443;-65
2023/03/27 02:26:40;;;;;;;6.63;3.13;;;8.70;99.90;;;;;;5025722;28;20513;-65
2023/03/27 02:29:30;;;;;;;7.07;3.00;;;8.80;99.90;;;;;;5021762;28;20855;-65
2023/03/27 02:32:23;;;;;;;9.03;3.40;;;8.80;99.90;;;;;;5026607;28;20608;-65
2023/03/27 02:35:02;;;;;;;7.90;3.77;;;8.80;99.90;;;;;;5026307;28;20522;-65
2023/03/27 02:37:42;;;;;;;7.47;3.73;;;8.80;99.90;;;;;;5026192;28;20458;-65
2023/03/27 02:40:20;;;;;;;6.87;2.80;;;8.80;99.90;;;;;;5021103;28;20431;-65
2023/03/27 02:42:54;;;;;;;5.70;2.60;;;8.80;99.90;;;;;;5027322;28;20833;-64
2023/03/27 02:45:35;;;;;;;6.93;2.93;;;8.80;99.90;;;;;;5024844;28;20448;-64
2023/03/27 02:48:09;;;;;;;10.33;3.20;;;8.80;99.90;;;;;;5025610;28;20997;-65
2023/03/27 02:51:15;;;;;;;5.50;3.10;;;8.80;99.90;;;;;;5030487;28;20625;-64
2023/03/27 02:54:04;;;;;;;7.87;2.73;;;8.80;99.90;;;;;;5029400;28;20443;-64
2023/03/27 02:56:37;;;;;;;8.57;3.20;;;8.60;99.90;;;;;;5027360;28;21508;-65
2023/03/27 02:59:07;;;;;;;9.03;3.27;;;8.60;99.90;;;;;;5028077;28;20465;-64
2023/03/27 03:01:35;;;;;;;7.20;3.33;;;8.60;99.90;;;;;;5021533;28;20440;-65
2023/03/27 03:04:23;;;;;;;7.90;3.07;;;8.50;99.90;;;;;;5025586;28;20453;-64
2023/03/27 03:06:49;;;;;;;4.03;2.57;;;8.40;99.90;;;;;;5025099;28;20479;-64
2023/03/27 03:09:15;;;;;;;5.47;2.60;;;8.50;99.90;;;;;;5024786;28;20461;-64
2023/03/27 03:11:50;;;;;;;6.90;2.93;;;8.40;99.90;;;;;;5030805;28;20243;-64
2023/03/27 03:14:20;;;;;;;8.20;3.27;;;8.40;99.90;;;;;;5022166;28;20445;-64
2023/03/27 03:16:46;;;;;;;7.80;2.90;;;8.50;99.90;;;;;;5026883;28;20478;-64
2023/03/27 03:19:11;;;;;;;6.93;3.10;;;8.40;99.90;;;;;;5025535;28;20449;-64
2023/03/27 03:21:38;;;;;;;4.10;2.50;;;8.40;99.90;;;;;;5028112;28;20208;-64
2023/03/27 03:24:04;;;;;;;4.83;2.43;;;8.40;99.90;;;;;;5024436;28;20184;-64
2023/03/27 03:26:31;;;;;;;4.80;2.63;;;8.40;99.90;;;;;;5027231;28;20472;-64
2023/03/27 03:28:57;;;;;;;8.53;2.83;;;8.40;99.90;;;;;;5025269;28;20454;-64
2023/03/27 03:31:22;;;;;;;6.03;2.33;;;8.40;99.90;;;;;;5027525;28;20827;-64
2023/03/27 03:33:48;;;;;;;9.33;2.63;;;8.30;99.90;;;;;;5027852;28;21078;-64
2023/03/27 03:36:14;;;;;;;11.07;2.87;;;8.40;99.90;;;;;;5026742;28;20242;-64
2023/03/27 03:38:40;;;;;;;4.67;2.10;;;8.40;99.90;;;;;;5022655;28;20176;-64
2023/03/27 03:41:06;;;;;;;9.33;2.83;;;8.20;99.90;;;;;;5025309;28;20447;-64
2023/03/27 03:43:32;;;;;;;9.90;2.73;;;8.10;99.90;;;;;;5022688;28;20431;-64
2023/03/27 03:45:58;;;;;;;6.37;3.20;;;8.10;99.90;;;;;;5033672;28;20258;-64
2023/03/27 03:48:25;;;;;;;10.37;3.57;;;8.00;99.90;;;;;;5025748;28;20580;-63
2023/03/27 03:50:51;;;;;;;4.57;2.40;;;7.90;99.90;;;;;;5024415;28;20463;-63
2023/03/27 03:53:19;;;;;;;6.33;2.77;;;7.90;99.90;;;;;;5022593;28;20483;-64
2023/03/27 03:55:45;;;;;;;5.47;3.27;;;7.80;99.90;;;;;;5025719;28;20907;-64
2023/03/27 03:58:11;;;;;;;9.00;3.00;;;7.70;99.90;;;;;;5024615;28;20808;-64
2023/03/27 04:00:38;;;;;;;4.30;2.70;;;7.70;99.90;;;;;;5024722;28;21906;-64
2023/03/27 04:03:07;;;;;;;10.63;2.97;;;7.60;99.90;;;;;;5025490;28;20454;-64
2023/03/27 04:05:35;;;;;;;11.10;3.20;;;7.60;99.90;;;;;;5023388;28;20435;-64
2023/03/27 04:08:01;;;;;;;12.63;3.57;;;7.60;99.90;;;;;;5023729;28;20454;-63
2023/03/27 04:10:28;;;;;;;14.13;3.50;;;7.50;99.90;;;;;;5023632;28;20478;-63
2023/03/27 04:12:54;;;;;;;14.47;4.77;;;7.50;99.90;;;;;;5027775;28;20469;-64
2023/03/27 04:15:19;;;;;;;11.87;3.97;;;7.40;99.90;;;;;;5021403;28;20537;-65
2023/03/27 04:17:47;;;;;;;9.73;3.10;;;7.30;99.90;;;;;;5025704;28;21223;-65
2023/03/27 04:20:13;;;;;;;12.53;3.60;;;7.30;99.90;;;;;;5026058;28;20195;-65
2023/03/27 04:22:47;;;;;;;8.70;3.27;;;7.30;99.90;;;;;;5024278;28;20442;-64
2023/03/27 04:25:16;;;;;;;6.13;2.67;;;7.20;99.90;;;;;;5024722;28;20528;-64
2023/03/27 04:27:42;;;;;;;5.20;2.67;;;7.30;99.90;;;;;;5025152;28;20539;-64
2023/03/27 04:30:12;;;;;;;7.90;2.80;;;7.30;99.90;;;;;;5023548;28;20474;-64
2023/03/27 04:32:39;;;;;;;9.33;2.90;;;7.20;99.90;;;;;;5020865;28;20988;-64
2023/03/27 04:35:05;;;;;;;11.80;2.77;;;7.20;99.90;;;;;;5024329;28;20441;-64
2023/03/27 04:37:30;;;;;;;11.37;3.37;;;7.20;99.90;;;;;;5024702;28;20833;-64
2023/03/27 04:39:57;;;;;;;6.97;2.80;;;7.20;99.90;;;;;;5026982;28;20390;-64
2023/03/27 04:42:22;;;;;;;6.37;2.90;;;7.10;99.90;;;;;;5023840;28;20180;-65
2023/03/27 04:44:51;;;;;;;4.20;2.70;;;7.20;99.90;;;;;;5024672;28;20423;-65
2023/03/27 04:47:16;;;;;;;7.13;4.30;;;7.20;99.90;;;;;;5022031;28;20196;-64
2023/03/27 04:49:45;;;;;;;8.30;3.33;;;7.10;99.90;;;;;;5015088;28;20438;-63
2023/03/27 04:52:13;;;;;;;9.93;2.80;;;7.20;99.90;;;;;;5026223;28;20176;-63
2023/03/27 04:54:39;;;;;;;6.97;3.07;;;7.10;99.90;;;;;;5027378;28;20499;-63
2023/03/27 04:57:06;;;;;;;6.13;2.70;;;7.10;99.90;;;;;;5022931;28;20451;-64
2023/03/27 04:59:32;;;;;;;8.03;2.77;;;7.10;99.90;;;;;;5025650;28;21030;-64
2023/03/27 05:02:00;;;;;;;4.93;2.90;;;7.10;99.90;;;;;;5026618;28;20432;-64
2023/03/27 05:04:27;;;;;;;12.23;6.60;;;7.20;99.90;;;;;;5023727;28;20432;-64
2023/03/27 05:06:56;;;;;;;4.83;2.90;;;7.20;99.90;;;;;;5022703;28;20458;-64
2023/03/27 05:09:23;;;;;;;9.47;3.70;;;7.20;99.90;;;;;;5026399;28;20795;-65
2023/03/27 05:11:49;;;;;;;8.43;2.90;;;7.20;99.90;;;;;;5031152;28;20461;-64
2023/03/27 05:14:23;;;;;;;5.80;2.77;;;7.20;99.90;;;;;;5024788;28;20473;-64
2023/03/27 05:16:50;;;;;;;6.63;2.63;;;7.20;99.90;;;;;;5026127;28;20450;-64
2023/03/27 05:19:18;;;;;;;8.57;3.70;;;7.10;99.90;;;;;;5025582;28;20435;-64
2023/03/27 05:21:45;;;;;;;9.90;3.10;;;7.20;99.90;;;;;;5011827;28;20437;-64
2023/03/27 05:24:10;;;;;;;6.27;3.30;;;7.20;99.90;;;;;;5023894;28;20924;-64
2023/03/27 05:26:37;;;;;;;7.97;2.90;;;7.20;99.90;;;;;;5032060;28;21038;-63
2023/03/27 05:29:04;;;;;;;5.70;2.43;;;7.10;99.90;;;;;;5027454;28;20210;-63
2023/03/27 05:31:34;;;;;;;5.40;2.50;;;7.10;99.90;;;;;;5027994;28;21190;-64
2023/03/27 05:34:00;;;;;;;5.30;2.57;;;7.10;99.90;;;;;;5028608;28;20464;-63
2023/03/27 05:36:27;;;;;;;9.17;2.87;;;7.20;99.90;;;;;;5027344;28;20539;-63
2023/03/27 05:38:53;;;;;;;7.27;3.73;;;7.10;99.90;;;;;;5025606;28;21048;-63
2023/03/27 05:41:19;;;;;;;4.47;2.80;;;7.10;99.90;;;;;;5024549;28;20859;-63
2023/03/27 05:43:45;;;;;;;6.87;3.07;;;7.10;99.90;;;;;;5026920;28;20571;-63
2023/03/27 05:46:11;;;;;;;10.53;2.93;;;7.10;99.90;;;;;;5024453;28;20434;-64
2023/03/27 05:48:37;;;;;;;9.17;3.10;;;7.10;99.90;;;;;;5026305;28;20446;-64
2023/03/27 05:51:08;;;;;;;4.73;2.97;;;7.00;99.90;;;;;;5035900;28;20218;-63
2023/03/27 05:53:36;;;;;;;5.70;2.57;;;6.90;99.90;;;;;;5027195;28;20546;-63
2023/03/27 05:56:02;;;;;;;5.90;2.77;;;6.90;99.90;;;;;;5030403;28;20438;-64
2023/03/27 05:58:28;;;;;;;16.00;2.93;;;6.90;99.90;;;;;;5025117;28;20443;-64
2023/03/27 06:00:53;;;;;;;6.70;2.97;;;6.80;99.90;;;;;;5042764;28;20191;-63
2023/03/27 06:03:19;;;;;;;4.30;2.80;;;6.90;99.90;;;;;;5028123;28;20236;-64
2023/03/27 06:05:45;;;;;;;8.57;3.40;;;6.90;99.90;;;;;;5029214;28;20206;-64
2023/03/27 06:08:11;;;;;;;8.23;3.00;;;7.00;99.90;;;;;;5020959;28;20466;-63
2023/03/27 06:10:39;;;;;;;9.20;3.00;;;7.00;99.90;;;;;;5026502;28;21093;-63
2023/03/27 06:13:07;;;;;;;8.70;2.97;;;7.00;99.90;;;;;;5025299;28;20370;-63
2023/03/27 06:15:36;;;;;;;4.63;2.30;;;7.10;99.90;;;;;;5023466;28;20862;-63
2023/03/27 06:18:02;;;;;;;9.20;2.80;;;7.10;99.90;;;;;;5028143;28;20834;-63
2023/03/27 06:20:28;;;;;;;7.97;2.90;;;7.10;99.90;;;;;;5025362;28;20516;-63
2023/03/27 06:22:58;;;;;;;6.97;2.90;;;7.20;99.90;;;;;;5024310;28;21026;-67
2023/03/27 06:25:25;;;;;;;5.10;3.13;;;7.20;99.90;;;;;;5030676;28;20478;-64
2023/03/27 06:27:51;;;;;;;6.40;2.80;;;7.30;99.90;;;;;;5029129;28;20492;-63
2023/03/27 06:30:19;;;;;;;8.60;2.93;;;7.30;99.90;;;;;;5027677;28;21221;-63
2023/03/27 06:32:53;;;;;;;8.60;2.70;;;7.30;99.90;;;;;;5026602;28;20172;-64
2023/03/27 06:35:20;;;;;;;5.50;2.50;;;7.30;99.90;;;;;;5026625;28;20434;-63
2023/03/27 06:37:47;;;;;;;7.93;3.23;;;7.40;99.90;;;;;;5024543;28;20525;-63
2023/03/27 06:40:23;;;;;;;10.17;3.30;;;7.40;99.90;;;;;;5027274;28;20438;-63
2023/03/27 06:43:04;;;;;;;8.10;2.77;;;7.30;99.90;;;;;;5025022;28;20445;-63
2023/03/27 06:45:42;;;;;;;6.53;2.90;;;7.20;99.90;;;;;;5025952;28;20445;-63
2023/03/27 06:48:08;;;;;;;5.83;3.53;;;7.20;99.90;;;;;;5024699;28;20701;-64
2023/03/27 06:50:34;;;;;;;11.53;3.27;;;7.20;99.90;;;;;;5020316;28;20612;-64
2023/03/27 06:53:00;;;;;;;5.27;2.83;;;7.30;99.90;;;;;;5027376;28;20481;-64
2023/03/27 06:55:27;;;;;;;10.13;3.27;;;7.30;99.90;;;;;;5025769;28;20197;-62
2023/03/27 06:57:55;;;;;;;3.10;2.33;;;7.40;99.90;;;;;;5026406;28;20459;-63
2023/03/27 07:00:24;;;;;;;6.23;3.10;;;7.30;99.90;;;;;;5023066;28;20438;-62
2023/03/27 07:03:05;;;;;;;5.37;2.70;;;7.40;99.90;;;;;;5024303;28;20433;-62
2023/03/27 07:05:35;;;;;;;8.33;3.60;;;7.30;99.90;;;;;;5026344;28;20442;-63
2023/03/27 07:08:02;;;;;;;5.50;3.03;;;7.40;99.90;;;;;;5020644;28;20455;-64
2023/03/27 07:10:27;;;;;;;6.23;3.00;;;7.20;99.90;;;;;;5025572;28;20819;-62
2023/03/27 07:12:53;;;;;;;4.03;3.07;;;7.20;99.90;;;;;;5026081;28;20446;-63
2023/03/27 07:15:19;;;;;;;11.13;3.00;;;7.40;99.90;;;;;;5024463;28;20216;-63
2023/03/27 07:17:53;;;;;;;6.23;2.40;;;7.30;99.90;;;;;;5024565;28;20204;-62
2023/03/27 07:20:19;;;;;;;8.03;3.07;;;7.30;99.90;;;;;;5023689;28;20490;-62
2023/03/27 07:22:44;;;;;;;5.77;3.00;;;7.30;99.90;;;;;;5021716;28;20446;-63
2023/03/27 07:25:11;;;;;;;10.17;5.40;;;7.40;99.90;;;;;;5028165;28;20454;-62
2023/03/27 07:27:37;;;;;;;5.93;3.30;;;7.30;99.90;;;;;;5024997;28;20297;-62
2023/03/27 07:30:06;;;;;;;8.23;2.80;;;7.10;99.90;;;;;;5020840;28;20822;-62
2023/03/27 07:32:35;;;;;;;9.00;3.17;;;7.20;99.90;;;;;;5021930;28;20438;-63
2023/03/27 07:35:04;;;;;;;15.30;3.17;;;7.10;99.90;;;;;;5025092;28;20453;-63
2023/03/27 07:37:29;;;;;;;7.50;3.50;;;6.90;99.90;;;;;;5022374;28;21362;-62
2023/03/27 07:39:55;;;;;;;6.47;3.17;;;7.00;99.90;;;;;;5030411;28;20438;-62
2023/03/27 07:42:21;;;;;;;11.47;2.63;;;7.20;99.90;;;;;;5023564;28;20496;-62
2023/03/27 07:44:46;;;;;;;8.13;3.00;;;7.30;99.90;;;;;;5024076;28;22460;-62
2023/03/27 07:47:12;;;;;;;6.77;3.17;;;7.40;99.90;;;;;;5022629;28;20315;-62
2023/03/27 07:49:38;;;;;;;7.27;2.77;;;7.40;99.90;;;;;;5032435;28;21091;-62
2023/03/27 07:52:04;;;;;;;11.40;2.83;;;7.20;99.90;;;;;;5027694;28;20199;-62
2023/03/27 07:54:30;;;;;;;5.83;2.97;;;7.30;99.90;;;;;;5028336;28;20674;-63
2023/03/27 07:56:56;;;;;;;11.37;3.30;;;7.40;99.90;;;;;;5025340;28;20805;-62
2023/03/27 07:59:22;;;;;;;6.83;3.13;;;7.40;99.90;;;;;;5026125;28;20449;-62
2023/03/27 08:01:49;;;;;;;6.10;2.77;;;7.50;99.90;;;;;;5023307;28;20235;-63
2023/03/27 08:04:16;;;;;;;11.23;3.10;;;7.50;99.90;;;;;;5029403;28;20446;-63
2023/03/27 08:06:42;;;;;;;10.07;2.97;;;7.50;99.90;;;;;;5025085;28;20462;-63
2023/03/27 08:09:09;;;;;;;8.40;3.17;;;7.50;99.90;;;;;;5024447;28;20970;-63
2023/03/27 08:11:37;;;;;;;8.00;3.20;;;7.50;99.90;;;;;;5025376;28;20887;-63
2023/03/27 08:14:03;;;;;;;5.80;3.20;;;7.60;99.90;;;;;;5027355;28;20522;-62
2023/03/27 08:16:29;;;;;;;10.13;3.03;;;7.70;99.90;;;;;;5027521;28;20559;-62
2023/03/27 08:18:54;;;;;;;5.03;2.67;;;7.70;99.90;;;;;;5021744;28;20427;-62
2023/03/27 08:21:21;;;;;;;4.03;2.77;;;7.70;99.90;;;;;;5026297;28;20435;-63
2023/03/27 08:23:47;;;;;;;7.60;2.50;;;7.70;99.90;;;;;;5028049;28;20183;-63
2023/03/27 08:26:13;;;;;;;5.70;2.60;;;7.60;99.90;;;;;;5024791;28;20568;-64
2023/03/27 08:28:39;;;;;;;5.37;2.80;;;7.60;99.90;;;;;;5025472;28;20195;-64
2023/03/27 08:31:11;;;;;;;9.87;3.00;;;7.60;99.90;;;;;;5025635;28;20474;-64
2023/03/27 08:33:38;;;;;;;4.70;2.63;;;7.40;99.90;;;;;;5025530;28;20444;-65
2023/03/27 08:36:04;;;;;;;4.03;2.73;;;7.50;99.90;;;;;;5022530;28;20675;-64
2023/03/27 08:38:32;;;;;;;10.00;3.70;;;7.60;99.90;;;;;;5024476;28;20418;-64
2023/03/27 08:40:59;;;;;;;10.43;2.87;;;7.70;99.90;;;;;;5022912;28;20811;-63
2023/03/27 08:43:46;;;;;;;9.43;3.27;;;7.70;99.90;;;;;;5024903;28;20435;-64
2023/03/27 08:46:45;;;;;;;8.87;2.97;;;7.70;99.90;;;;;;5024474;28;20572;-63
2023/03/27 08:49:16;;;;;;;6.40;2.90;;;7.80;99.90;;;;;;5025803;28;20450;-64
2023/03/27 08:51:47;;;;;;;8.17;2.77;;;7.90;99.90;;;;;;5022549;28;20486;-64
2023/03/27 08:54:16;;;;;;;7.10;3.50;;;8.10;99.90;;;;;;5028886;28;20419;-64
2023/03/27 08:56:42;;;;;;;4.43;3.07;;;8.30;99.90;;;;;;5029950;28;20986;-64
2023/03/27 08:59:14;;;;;;;6.13;2.67;;;8.30;99.90;;;;;;5022409;28;20514;-63
2023/03/27 09:02:18;;;;;;;9.03;3.13;;;8.30;99.90;;;;;;5028571;28;20193;-63
2023/03/27 09:05:00;;;;;;;11.23;2.83;;;8.30;99.90;;;;;;5026026;28;20465;-63
2023/03/27 09:07:44;;;;;;;7.67;2.87;;;8.30;99.90;;;;;;5030047;28;21213;-62
2023/03/27 09:10:20;;;;;;;4.60;2.90;;;8.20;99.90;;;;;;5028960;28;20828;-62
2023/03/27 09:13:17;;;;;;;9.07;3.00;;;8.40;99.90;;;;;;5026038;28;20456;-63
2023/03/27 09:15:51;;;;;;;6.40;2.60;;;8.40;99.90;;;;;;5025700;28;21139;-63
2023/03/27 09:18:30;;;;;;;5.00;2.90;;;8.50;99.90;;;;;;5028407;28;20456;-62
2023/03/27 09:21:09;;;;;;;9.90;3.30;;;8.70;99.80;;;;;;5026978;28;20438;-62
2023/03/27 09:23:43;;;;;;;7.67;4.47;;;8.80;99.40;;;;;;5025674;28;20437;-62
2023/03/27 09:26:18;;;;;;;6.30;2.70;;;9.00;97.90;;;;;;5022388;28;20445;-63
2023/03/27 09:28:50;;;;;;;4.23;2.27;;;9.10;96.20;;;;;;5024972;28;20494;-64
2023/03/27 09:31:16;;;;;;;4.13;3.17;;;9.20;95.80;;;;;;5027797;28;20927;-62
2023/03/27 09:33:43;;;;;;;5.60;2.70;;;9.40;95.70;;;;;;5024108;28;20442;-62
2023/03/27 09:36:09;;;;;;;6.83;2.50;;;9.50;95.70;;;;;;5023477;28;20497;-63
2023/03/27 09:38:38;;;;;;;6.83;2.50;;;9.60;95.10;;;;;;5023744;28;20570;-62
2023/03/27 09:41:26;;;;;;;7.53;2.43;;;9.60;94.30;;;;;;5028421;28;20452;-63
2023/03/27 09:43:59;;;;;;;7.00;3.50;;;9.60;94.00;;;;;;5027992;28;20439;-62
2023/03/27 09:46:27;;;;;;;7.77;2.70;;;9.50;93.20;;;;;;5023523;28;20447;-62
2023/03/27 09:49:01;;;;;;;4.77;2.83;;;9.50;92.80;;;;;;5023003;28;20450;-63
2023/03/27 09:51:52;;;;;;;3.50;2.93;;;9.40;90.90;;;;;;5026666;28;20472;-64
2023/03/27 09:54:20;;;;;;;5.07;2.90;;;9.40;91.00;;;;;;5028181;28;20438;-64
2023/03/27 09:57:11;;;;;;;9.30;2.73;;;9.40;91.30;;;;;;5025335;28;20462;-63
2023/03/27 09:59:58;;;;;;;4.82;2.30;;;9.40;91.60;;;;;;5029867;28;21053;-65
2023/03/27 10:02:29;;;;;;;7.50;2.93;;;9.30;90.80;;;;;;5026926;28;20232;-65
2023/03/27 10:05:10;;;;;;;10.00;2.87;;;9.50;90.40;;;;;;5023802;28;20443;-62
2023/03/27 10:07:38;;;;;;;5.50;2.93;;;9.50;90.30;;;;;;5021441;28;20459;-63
2023/03/27 10:10:12;;;;;;;7.73;2.80;;;9.70;89.90;;;;;;5023556;28;20572;-63
2023/03/27 10:12:39;;;;;;;6.37;2.80;;;9.80;90.10;;;;;;5021848;28;20436;-62
2023/03/27 10:15:23;;;;;;;6.93;2.80;;;10.00;89.00;;;;;;5021938;28;20435;-62
2023/03/27 10:17:49;;;;;;;5.33;2.40;;;10.20;89.90;;;;;;5025014;28;20451;-62
2023/03/27 10:20:17;;;;;;;4.67;2.93;;;10.20;90.00;;;;;;5024454;28;20867;-64
2023/03/27 10:22:50;;;;;;;8.23;3.20;;;10.30;90.10;;;;;;5026458;28;20453;-62
2023/03/27 10:25:32;;;;;;;4.30;2.60;;;10.10;89.70;;;;;;5025606;28;20452;-63
2023/03/27 10:28:18;;;;;;;6.70;2.80;;;9.90;90.80;;;;;;5024299;28;20585;-62
2023/03/27 10:30:43;;;;;;;5.10;2.53;;;9.90;91.20;;;;;;5021939;28;20810;-63
2023/03/27 10:33:09;;;;;;;5.20;2.67;;;9.80;90.30;;;;;;5025128;28;20450;-63
2023/03/27 10:35:42;;;;;;;8.23;2.90;;;9.60;90.60;;;;;;5024003;28;20766;-63
2023/03/27 10:38:13;;;;;;;11.50;3.80;;;9.70;91.40;;;;;;5024913;28;20216;-64
2023/03/27 10:40:41;;;;;;;4.90;3.07;;;9.80;90.30;;;;;;5026139;28;20811;-63
2023/03/27 10:43:11;;;;;;;3.60;2.90;;;9.90;90.50;;;;;;5026114;28;20446;-63
2023/03/27 10:45:50;;;;;;;4.20;2.70;;;9.90;90.50;;;;;;5026072;28;20449;-64
2023/03/27 10:48:51;;;;;;;6.33;2.30;;;10.00;88.20;;;;;;5023054;28;20486;-63
2023/03/27 10:51:25;;;;;;;31.57;4.50;;;10.00;88.90;;;;;;5024936;28;20462;-62
2023/03/27 10:53:57;;;;;;;5.10;2.63;;;10.10;89.60;;;;;;5024991;28;20445;-63
2023/03/27 10:56:43;;;;;;;3.90;3.17;;;10.30;87.60;;;;;;5029042;28;20535;-63
2023/03/27 10:59:35;;;;;;;4.67;2.20;;;10.60;86.60;;;;;;5020335;28;20435;-63
2023/03/27 11:02:11;;;;;;;7.27;3.00;;;10.70;84.50;;;;;;5021894;28;20449;-62
2023/03/27 11:04:50;;;;;;;7.03;2.67;;;11.00;85.30;;;;;;5024688;28;20844;-63
2023/03/27 11:07:27;;;;;;;6.73;2.50;;;11.30;83.70;;;;;;5022564;28;20509;-62
2023/03/27 11:10:00;;;;;;;4.30;2.63;;;11.40;80.70;;;;;;5021009;28;20473;-62
2023/03/27 11:12:30;;;;;;;5.23;2.33;;;11.50;80.20;;;;;;5019952;28;20623;-64
2023/03/27 11:15:06;;;;;;;3.73;2.60;;;11.40;79.40;;;;;;5019281;28;20770;-63
2023/03/27 11:17:52;;;;;;;5.23;2.40;;;11.20;79.70;;;;;;5022080;28;20461;-63
2023/03/27 11:20:28;;;;;;;3.90;2.23;;;11.20;80.50;;;;;;5023288;28;20533;-63
2023/03/27 11:23:08;;;;;;;9.40;2.63;;;11.30;80.40;;;;;;5018622;28;20525;-64
2023/03/27 11:25:57;;;;;;;7.70;2.70;;;11.20;80.40;;;;;;5029751;28;20515;-64
2023/03/27 11:28:38;;;;;;;3.37;2.40;;;11.20;81.30;;;;;;5024189;28;20801;-64
2023/03/27 11:31:13;;;;;;;5.20;2.77;;;11.20;81.90;;;;;;5020755;28;20470;-63
2023/03/27 11:33:42;;;;;;;7.27;2.90;;;11.40;82.40;;;;;;5022600;28;21190;-63
2023/03/27 11:36:29;;;;;;;5.73;2.63;;;11.50;83.40;;;;;;5021805;28;20462;-63
2023/03/27 11:39:09;;;;;;;5.73;3.10;;;11.60;83.90;;;;;;5024096;28;20462;-63
2023/03/27 11:41:34;;;;;;;6.07;2.70;;;11.60;84.90;;;;;;5021087;28;20454;-63
2023/03/27 11:44:00;;;;;;;5.00;2.70;;;11.60;85.50;;;;;;5024913;28;20442;-63
2023/03/27 11:46:26;;;;;;;6.30;3.17;;;11.80;86.10;;;;;;5021940;28;20215;-63
2023/03/27 11:49:13;;;;;;;9.77;3.10;;;12.00;87.10;;;;;;5015214;28;20271;-63
2023/03/27 11:51:58;;;;;;;6.07;2.83;;;12.20;88.30;;;;;;5021972;28;20623;-63
2023/03/27 11:55:08;;;;;;;9.40;2.70;;;12.40;86.40;;;;;;5015646;28;20443;-62
2023/03/27 11:57:48;;;;;;;7.10;3.17;;;12.50;81.80;;;;;;5015778;28;21100;-62
2023/03/27 12:00:41;;;;;;;5.30;2.40;;;12.40;82.10;;;;;;5016856;28;20838;-65
2023/03/27 12:03:35;;;;;;;5.93;2.70;;;12.50;82.30;;;;;;5023770;28;20443;-63
2023/03/27 12:06:15;;;;;;;3.27;2.60;;;12.80;83.10;;;;;;5023532;28;20510;-63
2023/03/27 12:09:12;;;;;;;2.47;2.27;;;13.10;81.10;;;;;;5024601;28;20430;-62
2023/03/27 12:11:45;;;;;;;6.13;2.70;;;13.30;80.70;;;;;;5025566;28;20466;-63
2023/03/27 12:14:14;;;;;;;3.77;2.40;;;13.00;76.90;;;;;;5023439;28;20581;-66
2023/03/27 12:16:56;;;;;;;4.90;2.80;;;12.70;78.30;;;;;;5023252;28;20458;-64
2023/03/27 12:19:25;;;;;;;5.60;3.07;;;12.50;77.40;;;;;;5026563;28;20447;-66
2023/03/27 12:22:34;;;;;;;3.70;2.67;;;12.60;77.90;;;;;;5032566;28;20430;-64
2023/03/27 12:25:23;;;;;;;7.00;2.73;;;12.20;77.10;;;;;;5030279;28;20433;-61
2023/03/27 12:28:15;;;;;;;5.57;3.00;;;12.20;76.70;;;;;;5026594;28;20508;-62
2023/03/27 12:30:55;;;;;;;6.37;3.30;;;12.10;76.80;;;;;;5022134;28;20465;-61
2023/03/27 12:33:21;;;;;;;5.93;2.80;;;12.00;77.20;;;;;;5024019;28;20523;-62
2023/03/27 12:35:51;;;;;;;3.87;2.80;;;11.80;77.80;;;;;;5020425;28;20438;-61
2023/03/27 12:38:39;;;;;;;3.57;2.40;;;11.70;77.60;;;;;;5032021;28;20199;-61
2023/03/27 12:41:12;;;;;;;4.43;3.13;;;11.60;78.20;;;;;;5025494;28;20475;-61
2023/03/27 12:43:44;;;;;;;6.00;3.30;;;11.60;80.30;;;;;;5030660;28;20427;-61
2023/03/27 12:46:15;;;;;;;5.43;3.10;;;11.30;86.00;;;;;;5025377;28;20826;-61
2023/03/27 12:49:00;;;;;;;7.00;3.63;;;10.80;90.60;;;;;;5025863;28;20455;-61
2023/03/27 12:52:03;;;;;;;5.37;3.00;;;10.50;93.70;;;;;;5026378;28;20928;-61
2023/03/27 12:54:31;;;;;;;4.40;3.10;;;10.30;95.80;;;;;;5030243;28;20555;-60
2023/03/27 12:57:19;;;;;;;7.50;3.27;;;10.20;96.90;;;;;;5033874;28;20517;-63
2023/03/27 12:59:48;;;;;;;6.73;3.00;;;10.30;98.00;;;;;;5030336;28;20473;-62
2023/03/27 13:02:44;;;;;;;4.37;2.60;;;11.10;99.90;;;;;;5024219;28;20439;-62
2023/03/27 13:05:19;;;;;;;5.83;3.00;;;12.70;99.90;;;;;;5030052;28;21262;-62
2023/03/27 13:08:20;;;;;;;4.10;2.77;;;14.00;99.50;;;;;;5023859;28;20462;-61
2023/03/27 13:10:58;;;;;;;7.33;2.60;;;14.40;96.00;;;;;;5017971;28;21102;-62
2023/03/27 13:13:56;;;;;;;4.80;2.80;;;14.60;94.80;;;;;;5030260;28;20854;-61
2023/03/27 13:16:43;;;;;;;5.73;3.73;;;15.50;94.00;;;;;;5028805;28;20461;-61
2023/03/27 13:19:39;;;;;;;6.00;2.70;;;15.50;90.90;;;;;;5028154;28;21256;-61
2023/03/27 13:22:38;;;;;;;5.90;2.70;;;14.90;91.50;;;;;;5028090;28;21077;-63
2023/03/27 13:25:22;;;;;;;6.00;3.27;;;14.90;91.60;;;;;;5025153;28;20462;-62